Time;durP1;ratioP1;P1;durP2;ratioP2;P2;SDS_P1;SDS_P2;PMS_P1;PMS_P2;Temp;Humidity;BMP_temperature;BMP_pressure;BME280_temperature;BME280_humidity;BME280_pressure;Samples;Min_cycle;Max_cycle;Signal;HPM_P1;HPM_P2
2023/07/01 00:00:04;;;;;;;8.40;2.45;;;;;;;;;;5090816;28;20176;-74
2023/07/01 00:02:30;;;;;;;7.90;2.60;;;;;;;;;;5091658;28;20040;-75
2023/07/01 00:04:56;;;;;;;6.55;2.38;;;;;;;;;;5091057;28;20036;-75
2023/07/01 00:07:22;;;;;;;10.43;2.25;;;;;;;;;;5091129;28;20094;-74
2023/07/01 00:09:48;;;;;;;10.45;2.40;;;;;;;;;;5074319;28;20039;-74
2023/07/01 00:12:14;;;;;;;5.75;2.30;;;;;;;;;;5091937;28;20068;-74
2023/07/01 00:14:40;;;;;;;6.70;2.70;;;;;;;;;;5092072;28;20472;-74
2023/07/01 00:17:09;;;;;;;8.40;2.50;;;;;;;;;;5090614;28;20044;-74
2023/07/01 00:19:35;;;;;;;6.43;2.35;;;;;;;;;;5091085;28;20113;-74
2023/07/01 00:22:02;;;;;;;7.30;2.47;;;;;;;;;;5091863;28;20058;-74
2023/07/01 00:24:28;;;;;;;6.25;2.33;;;;;;;;;;5074069;28;20048;-74
2023/07/01 00:26:54;;;;;;;9.73;2.45;;;;;;;;;;5074482;28;20499;-74
2023/07/01 00:29:20;;;;;;;13.23;2.60;;;;;;;;;;5090549;28;20404;-75
2023/07/01 00:31:47;;;;;;;5.95;2.55;;;;;;;;;;5090965;28;20123;-75
2023/07/01 00:34:13;;;;;;;8.25;2.50;;;;;;;;;;5090686;28;20522;-74
2023/07/01 00:36:39;;;;;;;8.60;2.28;;;;;;;;;;5090815;28;20036;-74
2023/07/01 00:39:05;;;;;;;6.63;2.35;;;;;;;;;;5073622;28;20047;-74
2023/07/01 00:41:31;;;;;;;7.60;2.35;;;;;;;;;;5092135;28;20067;-74
2023/07/01 00:43:57;;;;;;;7.15;2.58;;;;;;;;;;5073885;28;20097;-74
2023/07/01 00:46:23;;;;;;;7.10;2.85;;;;;;;;;;5090249;28;20040;-74
2023/07/01 00:48:49;;;;;;;5.40;2.17;;;;;;;;;;5090653;28;20044;-74
2023/07/01 00:51:16;;;;;;;6.35;2.28;;;;;;;;;;5090758;28;20044;-74
2023/07/01 00:53:42;;;;;;;5.70;2.17;;;;;;;;;;5090582;28;20493;-74
2023/07/01 00:56:08;;;;;;;6.78;2.30;;;;;;;;;;5089842;28;20078;-74
2023/07/01 00:58:34;;;;;;;5.07;2.45;;;;;;;;;;5073488;28;20036;-75
2023/07/01 01:01:02;;;;;;;6.32;2.38;;;;;;;;;;5090754;28;20108;-76
2023/07/01 01:03:49;;;;;;;7.75;2.38;;;;;;;;;;5073652;28;20044;-74
2023/07/01 01:06:16;;;;;;;;;;;;;;;;;;5090807;28;20401;-75
2023/07/01 01:09:10;;;;;;;8.70;2.58;;;;;;;;;;5107799;28;19916;-74
2023/07/01 01:11:37;;;;;;;8.18;2.50;;;;;;;;;;5081249;28;20450;-75
2023/07/01 01:14:05;;;;;;;10.73;2.75;;;;;;;;;;5077502;28;20040;-76
2023/07/01 01:16:31;;;;;;;5.65;2.22;;;;;;;;;;5094325;28;20047;-74
2023/07/01 01:18:58;;;;;;;6.97;2.70;;;;;;;;;;5094216;28;20036;-74
2023/07/01 01:21:24;;;;;;;8.63;2.78;;;;;;;;;;5095063;28;20059;-74
2023/07/01 01:23:53;;;;;;;7.80;2.80;;;;;;;;;;5077437;28;20044;-75
2023/07/01 01:26:20;;;;;;;8.95;2.70;;;;;;;;;;5093730;28;20048;-74
2023/07/01 01:28:46;;;;;;;7.15;2.60;;;;;;;;;;5094306;28;20047;-74
2023/07/01 01:31:13;;;;;;;7.32;3.10;;;;;;;;;;5093495;28;20164;-74
2023/07/01 01:33:40;;;;;;;7.28;2.88;;;;;;;;;;5094465;28;20544;-75
2023/07/01 01:36:27;;;;;;;6.20;2.80;;;;;;;;;;5093725;28;20056;-75
2023/07/01 01:38:55;;;;;;;6.40;2.88;;;;;;;;;;5093957;28;20036;-74
2023/07/01 01:41:28;;;;;;;11.77;2.83;;;;;;;;;;5093383;28;20040;-74
2023/07/01 01:44:00;;;;;;;5.78;2.55;;;;;;;;;;5076977;28;20048;-75
2023/07/01 01:46:27;;;;;;;6.97;2.80;;;;;;;;;;5094260;28;20115;-75
2023/07/01 01:48:56;;;;;;;12.00;2.90;;;;;;;;;;5093945;28;20036;-75
2023/07/01 01:51:23;;;;;;;8.18;3.00;;;;;;;;;;5093340;28;20115;-75
2023/07/01 01:53:51;;;;;;;5.75;2.78;;;;;;;;;;5076683;28;20039;-75
2023/07/01 01:56:17;;;;;;;7.68;2.90;;;;;;;;;;5091801;28;20489;-74
2023/07/01 01:58:44;;;;;;;13.07;3.30;;;;;;;;;;5093828;28;20032;-74
2023/07/01 02:01:10;;;;;;;7.13;2.75;;;;;;;;;;5088654;28;20040;-75
2023/07/01 02:03:36;;;;;;;11.85;3.47;;;;;;;;;;5092818;28;20043;-73
2023/07/01 02:06:02;;;;;;;6.85;3.25;;;;;;;;;;5092602;28;20492;-75
2023/07/01 02:08:28;;;;;;;9.30;3.33;;;;;;;;;;5092732;28;20040;-75
2023/07/01 02:10:54;;;;;;;8.57;3.10;;;;;;;;;;5093182;28;20051;-75
2023/07/01 02:13:20;;;;;;;7.05;3.10;;;;;;;;;;5092888;28;20523;-75
2023/07/01 02:15:46;;;;;;;9.73;3.70;;;;;;;;;;5093062;28;20036;-75
2023/07/01 02:18:12;;;;;;;6.18;3.30;;;;;;;;;;5092995;28;20071;-75
2023/07/01 02:20:38;;;;;;;5.47;3.33;;;;;;;;;;5092658;28;20036;-74
2023/07/01 02:23:05;;;;;;;8.63;3.75;;;;;;;;;;5076366;28;20044;-74
2023/07/01 02:25:31;;;;;;;13.48;4.05;;;;;;;;;;5075658;28;20039;-75
2023/07/01 02:27:58;;;;;;;9.75;4.28;;;;;;;;;;5093136;28;20048;-74
2023/07/01 02:30:24;;;;;;;8.07;4.10;;;;;;;;;;5093039;28;20048;-75
2023/07/01 02:32:50;;;;;;;7.30;4.18;;;;;;;;;;5093500;28;20498;-74
2023/07/01 02:35:16;;;;;;;7.20;4.00;;;;;;;;;;5092411;28;20040;-75
2023/07/01 02:37:42;;;;;;;12.15;4.03;;;;;;;;;;5093106;28;20484;-73
2023/07/01 02:40:08;;;;;;;8.82;4.70;;;;;;;;;;5094267;28;20431;-75
2023/07/01 02:42:35;;;;;;;8.82;4.55;;;;;;;;;;5092101;28;20067;-73
2023/07/01 02:45:01;;;;;;;8.48;4.07;;;;;;;;;;5093025;28;20040;-73
2023/07/01 02:47:27;;;;;;;8.73;4.18;;;;;;;;;;5091998;28;20052;-75
2023/07/01 02:49:53;;;;;;;8.25;4.22;;;;;;;;;;5094153;28;20111;-74
2023/07/01 02:52:19;;;;;;;9.88;4.53;;;;;;;;;;5091888;28;20044;-75
2023/07/01 02:54:45;;;;;;;9.27;4.30;;;;;;;;;;5092248;28;20075;-75
2023/07/01 02:57:11;;;;;;;9.23;4.32;;;;;;;;;;5092297;28;20040;-74
2023/07/01 02:59:37;;;;;;;9.13;4.72;;;;;;;;;;5091771;28;20048;-75
2023/07/01 03:02:04;;;;;;;7.60;4.70;;;;;;;;;;5092305;28;20042;-74
2023/07/01 03:04:30;;;;;;;10.88;5.38;;;;;;;;;;5092073;28;20474;-75
2023/07/01 03:06:57;;;;;;;9.07;4.50;;;;;;;;;;5092096;28;20124;-75
2023/07/01 03:09:23;;;;;;;8.98;4.57;;;;;;;;;;5091834;28;20055;-75
2023/07/01 03:11:52;;;;;;;8.48;4.45;;;;;;;;;;5092129;28;20447;-74
2023/07/01 03:14:18;;;;;;;13.25;4.90;;;;;;;;;;5092074;28;20048;-74
2023/07/01 03:16:44;;;;;;;9.45;4.63;;;;;;;;;;5091757;28;20036;-74
2023/07/01 03:19:11;;;;;;;9.45;4.80;;;;;;;;;;5092155;28;20044;-74
2023/07/01 03:21:37;;;;;;;9.52;4.43;;;;;;;;;;5091646;28;20105;-74
2023/07/01 03:24:03;;;;;;;10.25;4.47;;;;;;;;;;5091899;28;20039;-74
2023/07/01 03:26:29;;;;;;;8.40;4.40;;;;;;;;;;5091250;28;20173;-73
2023/07/01 03:28:55;;;;;;;14.73;4.85;;;;;;;;;;5092034;28;20044;-74
2023/07/01 03:31:22;;;;;;;8.63;4.50;;;;;;;;;;5090785;28;20055;-74
2023/07/01 03:33:48;;;;;;;10.20;4.28;;;;;;;;;;5091844;28;20489;-75
2023/07/01 03:36:14;;;;;;;10.13;4.40;;;;;;;;;;5091665;28;20036;-74
2023/07/01 03:38:41;;;;;;;8.55;4.43;;;;;;;;;;5091124;28;20047;-74
2023/07/01 03:41:07;;;;;;;8.30;4.30;;;;;;;;;;5091903;28;20531;-75
2023/07/01 03:43:33;;;;;;;9.90;4.60;;;;;;;;;;5091570;28;20035;-74
2023/07/01 03:45:59;;;;;;;9.30;4.55;;;;;;;;;;5091404;28;20044;-74
2023/07/01 03:48:25;;;;;;;8.48;4.60;;;;;;;;;;5091037;28;20114;-74
2023/07/01 03:50:51;;;;;;;10.23;5.07;;;;;;;;;;5091576;28;20096;-73
2023/07/01 03:53:18;;;;;;;8.98;4.55;;;;;;;;;;5091439;28;20412;-74
2023/07/01 03:55:44;;;;;;;8.80;4.47;;;;;;;;;;5090913;28;20586;-76
2023/07/01 03:58:10;;;;;;;8.98;4.57;;;;;;;;;;5074339;28;20051;-75
2023/07/01 04:00:36;;;;;;;9.15;4.43;;;;;;;;;;5090959;28;20078;-75
2023/07/01 04:03:05;;;;;;;7.13;4.72;;;;;;;;;;5080647;28;20043;-76
2023/07/01 04:05:34;;;;;;;11.32;4.90;;;;;;;;;;5089879;28;20515;-73
2023/07/01 04:08:00;;;;;;;11.07;5.07;;;;;;;;;;5090874;28;20497;-76
2023/07/01 04:10:26;;;;;;;9.68;5.20;;;;;;;;;;5090608;28;20044;-76
2023/07/01 04:12:53;;;;;;;11.95;4.82;;;;;;;;;;5074088;28;20068;-77
2023/07/01 04:15:19;;;;;;;11.05;5.10;;;;;;;;;;5091361;28;20040;-76
2023/07/01 04:17:48;;;;;;;10.32;5.05;;;;;;;;;;5090489;28;20063;-76
2023/07/01 04:20:15;;;;;;;8.93;4.88;;;;;;;;;;5074231;28;20036;-74
2023/07/01 04:22:41;;;;;;;6.63;4.90;;;;;;;;;;5090405;28;20043;-74
2023/07/01 04:25:08;;;;;;;8.55;5.53;;;;;;;;;;5091036;28;20097;-76
2023/07/01 04:27:35;;;;;;;9.63;5.53;;;;;;;;;;5090945;28;20055;-74
2023/07/01 04:30:02;;;;;;;10.10;5.82;;;;;;;;;;5092369;28;20067;-75
2023/07/01 04:32:28;;;;;;;11.57;6.30;;;;;;;;;;5090813;28;20044;-74
2023/07/01 04:34:54;;;;;;;9.68;6.18;;;;;;;;;;5090755;28;20040;-75
2023/07/01 04:37:21;;;;;;;10.13;5.68;;;;;;;;;;5090658;28;20040;-76
2023/07/01 04:39:47;;;;;;;9.35;6.00;;;;;;;;;;5073640;28;20082;-75
2023/07/01 04:42:13;;;;;;;11.43;6.35;;;;;;;;;;5091117;28;20511;-75
2023/07/01 04:44:39;;;;;;;9.23;6.03;;;;;;;;;;5094295;28;20148;-76
2023/07/01 04:47:05;;;;;;;10.77;5.82;;;;;;;;;;5095065;28;20044;-74
2023/07/01 04:49:31;;;;;;;9.05;5.95;;;;;;;;;;5077908;28;20481;-74
2023/07/01 04:51:58;;;;;;;10.30;6.53;;;;;;;;;;5061195;28;20098;-74
2023/07/01 04:54:24;;;;;;;12.95;6.30;;;;;;;;;;5077686;28;20052;-76
2023/07/01 04:56:50;;;;;;;11.20;6.00;;;;;;;;;;5094317;28;20044;-76
2023/07/01 04:59:16;;;;;;;9.30;6.50;;;;;;;;;;5094716;28;20054;-75
2023/07/01 05:01:42;;;;;;;10.13;6.60;;;;;;;;;;5094402;28;20043;-76
2023/07/01 05:04:08;;;;;;;11.18;6.20;;;;;;;;;;5094505;28;20047;-75
2023/07/01 05:06:35;;;;;;;10.88;6.32;;;;;;;;;;5094314;28;20439;-74
2023/07/01 05:09:02;;;;;;;13.18;6.78;;;;;;;;;;5094456;28;20093;-74
2023/07/01 05:11:28;;;;;;;9.32;6.25;;;;;;;;;;5094518;28;20459;-74
2023/07/01 05:13:54;;;;;;;8.77;6.00;;;;;;;;;;5093893;28;20047;-75
2023/07/01 05:16:20;;;;;;;10.32;6.32;;;;;;;;;;5094407;28;20113;-74
2023/07/01 05:18:46;;;;;;;12.57;6.30;;;;;;;;;;5093663;28;20120;-75
2023/07/01 05:21:12;;;;;;;14.45;6.20;;;;;;;;;;5094432;28;20048;-75
2023/07/01 05:23:39;;;;;;;8.68;6.45;;;;;;;;;;5093776;28;20028;-76
2023/07/01 05:26:05;;;;;;;10.55;6.82;;;;;;;;;;5095979;28;20541;-75
2023/07/01 05:28:31;;;;;;;13.02;6.88;;;;;;;;;;5094173;28;20505;-76
2023/07/01 05:30:57;;;;;;;10.18;6.22;;;;;;;;;;5094133;28;20410;-76
2023/07/01 05:33:23;;;;;;;10.55;6.78;;;;;;;;;;5093996;28;20044;-75
2023/07/01 05:35:49;;;;;;;10.18;6.40;;;;;;;;;;5093564;28;20031;-75
2023/07/01 05:38:15;;;;;;;10.38;6.82;;;;;;;;;;5093855;28;20040;-74
2023/07/01 05:40:41;;;;;;;10.75;6.57;;;;;;;;;;5093826;28;20370;-75
2023/07/01 05:43:07;;;;;;;9.15;6.47;;;;;;;;;;5077129;28;20032;-74
2023/07/01 05:45:33;;;;;;;10.23;7.10;;;;;;;;;;5093738;28;20044;-75
2023/07/01 05:47:59;;;;;;;11.82;7.15;;;;;;;;;;5093468;28;20127;-75
2023/07/01 05:50:25;;;;;;;12.45;7.32;;;;;;;;;;5093797;28;20051;-74
2023/07/01 05:52:52;;;;;;;10.82;7.05;;;;;;;;;;5093515;28;20036;-77
2023/07/01 05:55:18;;;;;;;11.80;8.00;;;;;;;;;;5092723;28;20052;-74
2023/07/01 05:57:44;;;;;;;12.88;8.15;;;;;;;;;;5076584;28;20118;-75
2023/07/01 06:00:13;;;;;;;10.80;8.35;;;;;;;;;;5076735;28;20050;-75
2023/07/01 06:02:40;;;;;;;12.00;7.85;;;;;;;;;;5093431;28;20043;-75
2023/07/01 06:05:07;;;;;;;11.18;8.70;;;;;;;;;;5093288;28;20055;-80
2023/07/01 06:07:33;;;;;;;12.05;8.65;;;;;;;;;;5094777;28;20040;-79
2023/07/01 06:09:59;;;;;;;11.95;8.40;;;;;;;;;;5092831;28;20032;-79
2023/07/01 06:12:25;;;;;;;12.55;8.90;;;;;;;;;;5093364;28;20040;-78
2023/07/01 06:14:51;;;;;;;12.43;9.23;;;;;;;;;;5092792;28;20454;-80
2023/07/01 06:17:17;;;;;;;11.73;9.55;;;;;;;;;;5093379;28;20039;-79
2023/07/01 06:19:44;;;;;;;11.43;9.00;;;;;;;;;;5075792;28;20036;-79
2023/07/01 06:22:10;;;;;;;11.25;8.85;;;;;;;;;;5094402;28;20067;-78
2023/07/01 06:24:36;;;;;;;12.75;9.32;;;;;;;;;;5093256;28;20048;-78
2023/07/01 06:27:02;;;;;;;10.63;9.20;;;;;;;;;;5075841;28;20040;-80
2023/07/01 06:29:28;;;;;;;13.75;9.00;;;;;;;;;;5092960;28;20046;-75
2023/07/01 06:31:54;;;;;;;12.32;9.63;;;;;;;;;;5093828;28;20044;-76
2023/07/01 06:34:20;;;;;;;12.40;8.60;;;;;;;;;;5092680;28;20126;-76
2023/07/01 06:36:46;;;;;;;11.75;8.80;;;;;;;;;;5092872;28;20366;-75
2023/07/01 06:39:13;;;;;;;10.07;8.27;;;;;;;;;;5062071;28;20036;-76
2023/07/01 06:41:39;;;;;;;11.43;9.23;;;;;;;;;;5092730;28;20089;-81
2023/07/01 06:44:05;;;;;;;11.48;8.98;;;;;;;;;;5093533;28;20044;-76
2023/07/01 06:46:31;;;;;;;10.48;8.82;;;;;;;;;;5092587;28;20085;-76
2023/07/01 06:48:57;;;;;;;10.65;8.43;;;;;;;;;;5091886;28;20036;-75
2023/07/01 06:51:23;;;;;;;11.15;8.50;;;;;;;;;;5092481;28;20051;-76
2023/07/01 06:53:49;;;;;;;12.35;7.78;;;;;;;;;;5091811;28;20060;-75
2023/07/01 06:56:15;;;;;;;9.50;8.32;;;;;;;;;;5092401;28;20148;-76
2023/07/01 06:58:41;;;;;;;11.15;8.15;;;;;;;;;;5092809;28;20040;-76
2023/07/01 07:01:08;;;;;;;8.80;7.18;;;;;;;;;;5093125;28;20039;-78
2023/07/01 07:03:37;;;;;;;9.32;7.72;;;;;;;;;;5092498;28;20067;-76
2023/07/01 07:06:03;;;;;;;8.73;7.50;;;;;;;;;;5091517;28;20055;-75
2023/07/01 07:08:29;;;;;;;9.32;7.20;;;;;;;;;;5091613;28;20071;-76
2023/07/01 07:10:55;;;;;;;9.77;7.25;;;;;;;;;;5092048;28;20533;-74
2023/07/01 07:13:21;;;;;;;9.55;7.72;;;;;;;;;;5092239;28;20036;-75
2023/07/01 07:15:47;;;;;;;9.43;7.75;;;;;;;;;;5093200;28;20043;-78
2023/07/01 07:18:13;;;;;;;9.82;7.32;;;;;;;;;;5091576;28;20194;-79
2023/07/01 07:20:39;;;;;;;8.05;7.18;;;;;;;;;;5075359;28;20044;-77
2023/07/01 07:23:06;;;;;;;8.93;7.60;;;;;;;;;;5092198;28;20428;-74
2023/07/01 07:25:32;;;;;;;9.23;7.57;;;;;;;;;;5092095;28;20492;-75
2023/07/01 07:27:59;;;;;;;8.25;7.15;;;;;;;;;;5091551;28;20097;-75
2023/07/01 07:30:25;;;;;;;8.35;7.05;;;;;;;;;;5091600;28;20051;-78
2023/07/01 07:32:51;;;;;;;7.70;6.90;;;;;;;;;;5091817;28;20493;-78
2023/07/01 07:35:17;;;;;;;9.48;7.03;;;;;;;;;;5091573;28;20044;-77
2023/07/01 07:37:43;;;;;;;8.07;6.82;;;;;;;;;;5092067;28;20409;-78
2023/07/01 07:40:10;;;;;;;9.63;7.28;;;;;;;;;;5091531;28;20429;-78
2023/07/01 07:42:36;;;;;;;12.93;7.20;;;;;;;;;;5091704;28;20036;-75
2023/07/01 07:45:03;;;;;;;7.78;6.45;;;;;;;;;;5091193;28;20036;-74
2023/07/01 07:47:29;;;;;;;8.80;6.70;;;;;;;;;;5091315;28;20048;-74
2023/07/01 07:49:55;;;;;;;6.80;5.93;;;;;;;;;;5091693;28;20558;-74
2023/07/01 07:52:22;;;;;;;8.88;6.68;;;;;;;;;;5092070;28;20438;-74
2023/07/01 07:54:48;;;;;;;10.02;6.60;;;;;;;;;;5091540;28;20055;-78
2023/07/01 07:57:14;;;;;;;8.07;6.35;;;;;;;;;;5091169;28;20396;-78
2023/07/01 07:59:44;;;;;;;7.13;6.18;;;;;;;;;;5074436;28;20074;-78
2023/07/01 08:02:10;;;;;;;7.78;6.35;;;;;;;;;;5090946;28;20036;-77
2023/07/01 08:04:37;;;;;;;7.38;6.63;;;;;;;;;;5090988;28;20127;-75
2023/07/01 08:07:03;;;;;;;6.45;5.85;;;;;;;;;;5090948;28;20048;-74
2023/07/01 08:09:29;;;;;;;7.80;6.60;;;;;;;;;;5091391;28;20481;-77
2023/07/01 08:11:59;;;;;;;7.63;6.35;;;;;;;;;;5090830;28;20185;-79
2023/07/01 08:14:29;;;;;;;6.93;6.22;;;;;;;;;;5091321;28;20404;-78
2023/07/01 08:16:56;;;;;;;7.45;6.18;;;;;;;;;;5090889;28;20048;-77
2023/07/01 08:19:22;;;;;;;10.15;6.57;;;;;;;;;;5074116;28;20044;-77
2023/07/01 08:21:48;;;;;;;8.43;6.50;;;;;;;;;;5074093;28;20055;-77
2023/07/01 08:24:15;;;;;;;7.53;6.30;;;;;;;;;;5090909;28;20097;-78
2023/07/01 08:26:41;;;;;;;7.10;6.38;;;;;;;;;;5090819;28;20050;-77
2023/07/01 08:29:07;;;;;;;6.95;6.25;;;;;;;;;;5090806;28;20389;-76
2023/07/01 08:31:33;;;;;;;7.97;6.30;;;;;;;;;;5092182;28;20063;-78
2023/07/01 08:34:00;;;;;;;9.02;6.68;;;;;;;;;;5090466;28;20045;-77
2023/07/01 08:36:26;;;;;;;6.55;5.72;;;;;;;;;;5090897;28;20032;-79
2023/07/01 08:38:52;;;;;;;7.28;6.50;;;;;;;;;;5091104;28;20535;-78
2023/07/01 08:41:19;;;;;;;8.75;6.00;;;;;;;;;;5090549;28;20427;-80
2023/07/01 08:43:50;;;;;;;6.82;6.03;;;;;;;;;;5090795;28;20097;-78
2023/07/01 08:46:18;;;;;;;7.57;5.55;;;;;;;;;;5090840;28;20040;-78
2023/07/01 08:48:45;;;;;;;6.20;5.40;;;;;;;;;;5090703;28;20047;-77
2023/07/01 08:51:14;;;;;;;6.80;5.57;;;;;;;;;;5090579;28;20043;-79
2023/07/01 08:53:42;;;;;;;6.93;5.90;;;;;;;;;;5090364;28;20177;-78
2023/07/01 08:56:08;;;;;;;6.28;5.60;;;;;;;;;;5088945;28;20051;-77
2023/07/01 08:58:34;;;;;;;6.72;5.38;;;;;;;;;;5090925;28;20393;-78
2023/07/01 09:01:01;;;;;;;7.43;5.85;;;;;;;;;;5073613;28;20044;-78
2023/07/01 09:03:27;;;;;;;6.70;5.57;;;;;;;;;;5090431;28;20032;-79
2023/07/01 09:05:53;;;;;;;5.20;4.70;;;;;;;;;;5090768;28;20561;-75
2023/07/01 09:08:20;;;;;;;5.85;4.95;;;;;;;;;;5091464;28;20036;-74
2023/07/01 09:10:46;;;;;;;5.45;4.85;;;;;;;;;;5090411;28;20040;-77
2023/07/01 09:13:12;;;;;;;6.55;5.05;;;;;;;;;;5090321;28;20047;-75
2023/07/01 09:15:48;;;;;;;5.88;5.20;;;;;;;;;;5090591;28;20504;-76
2023/07/01 09:18:14;;;;;;;;;;;;;;;;;;5077738;28;20429;-79
2023/07/01 09:20:40;;;;;;;6.75;5.25;;;;;;;;;;5090795;28;19927;-79
2023/07/01 09:23:06;;;;;;;5.95;5.03;;;;;;;;;;5089923;28;20048;-79
2023/07/01 09:25:32;;;;;;;6.45;4.85;;;;;;;;;;5057195;28;20123;-80
2023/07/01 09:27:58;;;;;;;5.10;4.50;;;;;;;;;;5073510;28;20051;-77
2023/07/01 09:30:25;;;;;;;6.05;4.90;;;;;;;;;;5091238;28;20131;-79
2023/07/01 09:32:52;;;;;;;5.88;4.68;;;;;;;;;;5094132;28;20047;-79
2023/07/01 09:35:18;;;;;;;6.60;5.00;;;;;;;;;;5079653;28;20051;-75
2023/07/01 09:37:44;;;;;;;6.35;4.65;;;;;;;;;;5094057;28;20036;-75
2023/07/01 09:40:18;;;;;;;7.57;4.65;;;;;;;;;;5093510;28;20036;-76
2023/07/01 09:42:54;;;;;;;5.45;4.65;;;;;;;;;;5093894;28;20036;-75
2023/07/01 09:45:21;;;;;;;5.05;4.32;;;;;;;;;;5093636;28;20058;-76
2023/07/01 09:47:53;;;;;;;5.38;4.28;;;;;;;;;;5077057;28;20043;-75
2023/07/01 09:50:29;;;;;;;5.50;4.65;;;;;;;;;;5093188;28;20048;-76
2023/07/01 09:52:56;;;;;;;4.70;3.97;;;;;;;;;;5077238;28;20048;-76
2023/07/01 09:55:23;;;;;;;5.88;3.88;;;;;;;;;;5093062;28;20075;-75
2023/07/01 09:57:49;;;;;;;5.28;4.30;;;;;;;;;;5093550;28;20044;-76
2023/07/01 10:00:16;;;;;;;4.50;3.75;;;;;;;;;;5093129;28;20040;-75
2023/07/01 10:02:45;;;;;;;4.40;3.85;;;;;;;;;;5093448;28;20039;-75
2023/07/01 10:05:15;;;;;;;8.52;4.00;;;;;;;;;;5093238;28;20036;-76
2023/07/01 10:07:41;;;;;;;3.75;2.88;;;;;;;;;;5093365;28;20040;-76
2023/07/01 10:10:18;;;;;;;4.05;2.65;;;;;;;;;;5076894;28;20040;-76
2023/07/01 10:12:46;;;;;;;3.35;2.20;;;;;;;;;;5093248;28;20127;-76
2023/07/01 10:15:13;;;;;;;5.88;2.03;;;;;;;;;;5093001;28;20131;-77
2023/07/01 10:17:46;;;;;;;4.70;2.40;;;;;;;;;;5093238;28;20196;-77
2023/07/01 10:20:35;;;;;;;4.07;2.15;;;;;;;;;;5094428;28;20480;-77
2023/07/01 10:23:03;;;;;;;2.50;1.73;;;;;;;;;;5066081;28;20059;-77
2023/07/01 10:25:34;;;;;;;6.68;1.85;;;;;;;;;;5092894;28;20044;-77
2023/07/01 10:28:00;;;;;;;2.42;1.70;;;;;;;;;;5094143;28;20445;-79
2023/07/01 10:30:27;;;;;;;3.50;2.10;;;;;;;;;;5092966;28;20072;-78
2023/07/01 10:32:53;;;;;;;3.45;1.90;;;;;;;;;;5093022;28;20115;-76
2023/07/01 10:35:19;;;;;;;3.97;2.17;;;;;;;;;;5096140;28;20051;-77
2023/07/01 10:38:05;;;;;;;5.13;2.17;;;;;;;;;;5076247;28;20515;-78
2023/07/01 10:40:31;;;;;;;2.75;1.65;;;;;;;;;;5093242;28;20036;-78
2023/07/01 10:43:16;;;;;;;3.20;2.30;;;;;;;;;;5092683;28;20036;-78
2023/07/01 10:45:42;;;;;;;4.45;2.30;;;;;;;;;;5092826;28;20055;-79
2023/07/01 10:48:13;;;;;;;3.50;2.50;;;;;;;;;;5092984;28;20519;-79
2023/07/01 10:50:58;;;;;;;3.72;2.83;;;;;;;;;;5075830;28;20048;-79
2023/07/01 10:53:24;;;;;;;4.57;2.83;;;;;;;;;;5091767;28;20059;-77
2023/07/01 10:55:50;;;;;;;4.72;2.90;;;;;;;;;;5092459;28;20052;-77
2023/07/01 10:58:21;;;;;;;5.03;3.25;;;;;;;;;;5075402;28;20044;-78
2023/07/01 11:00:48;;;;;;;5.20;3.00;;;;;;;;;;5075825;28;20036;-78
2023/07/01 11:03:33;;;;;;;2.85;1.80;;;;;;;;;;5092606;28;20089;-77
2023/07/01 11:06:00;;;;;;;3.55;2.00;;;;;;;;;;5075585;28;20044;-77
2023/07/01 11:08:26;;;;;;;3.20;2.00;;;;;;;;;;5092139;28;20396;-77
2023/07/01 11:10:52;;;;;;;3.70;2.70;;;;;;;;;;5093584;28;20078;-78
2023/07/01 11:13:19;;;;;;;4.05;2.90;;;;;;;;;;5075103;28;20058;-78
2023/07/01 11:16:03;;;;;;;4.05;3.30;;;;;;;;;;5091990;28;20401;-78
2023/07/01 11:18:42;;;;;;;6.00;4.70;;;;;;;;;;5091993;28;20047;-76
2023/07/01 11:21:13;;;;;;;6.05;4.43;;;;;;;;;;5092088;28;20388;-78
2023/07/01 11:23:43;;;;;;;7.35;5.65;;;;;;;;;;5091871;28;20044;-78
2023/07/01 11:26:09;;;;;;;5.20;4.50;;;;;;;;;;5074889;28;20040;-78
2023/07/01 11:28:36;;;;;;;6.22;4.50;;;;;;;;;;5091558;28;20048;-79
2023/07/01 11:31:12;;;;;;;6.53;4.60;;;;;;;;;;5092991;28;20473;-78
2023/07/01 11:33:43;;;;;;;6.55;4.25;;;;;;;;;;5074826;28;20032;-78
2023/07/01 11:36:09;;;;;;;8.20;4.13;;;;;;;;;;5091824;28;20055;-77
2023/07/01 11:38:36;;;;;;;7.22;4.25;;;;;;;;;;5091694;28;20485;-78
2023/07/01 11:41:02;;;;;;;6.13;4.15;;;;;;;;;;5074849;28;20047;-78
2023/07/01 11:43:28;;;;;;;5.55;3.92;;;;;;;;;;5074667;28;20032;-78
2023/07/01 11:45:55;;;;;;;5.10;4.10;;;;;;;;;;5091683;28;20135;-76
2023/07/01 11:48:33;;;;;;;5.63;3.88;;;;;;;;;;5091559;28;20051;-76
2023/07/01 11:50:59;;;;;;;6.75;4.28;;;;;;;;;;5075261;28;20481;-78
2023/07/01 11:53:27;;;;;;;6.53;4.82;;;;;;;;;;5090642;28;20055;-76
2023/07/01 11:55:58;;;;;;;6.22;5.30;;;;;;;;;;5091907;28;20051;-78
2023/07/01 11:58:25;;;;;;;7.85;6.10;;;;;;;;;;5091731;28;20111;-78
2023/07/01 12:00:51;;;;;;;10.20;6.63;;;;;;;;;;5092784;28;20123;-77
2023/07/01 12:03:17;;;;;;;8.43;5.93;;;;;;;;;;5092583;28;20043;-77
2023/07/01 12:05:44;;;;;;;7.80;5.97;;;;;;;;;;5092289;28;20039;-77
2023/07/01 12:08:10;;;;;;;10.05;6.80;;;;;;;;;;5058863;28;20052;-76
2023/07/01 12:10:36;;;;;;;11.68;7.75;;;;;;;;;;5092082;28;20116;-76
2023/07/01 12:13:02;;;;;;;11.05;6.20;;;;;;;;;;5091427;28;20044;-77
2023/07/01 12:15:28;;;;;;;7.20;5.35;;;;;;;;;;5091122;28;20139;-78
2023/07/01 12:18:14;;;;;;;7.32;4.50;;;;;;;;;;5091708;28;20051;-79
2023/07/01 12:20:40;;;;;;;;;;;;;;;;;;5091338;28;20409;-79
2023/07/01 12:23:06;;;;;;;5.68;4.25;;;;;;;;;;5091546;28;19916;-76
2023/07/01 12:25:33;;;;;;;5.88;4.22;;;;;;;;;;5090940;28;20127;-78
2023/07/01 12:27:59;;;;;;;6.32;3.88;;;;;;;;;;5092368;28;20119;-79
2023/07/01 12:30:25;;;;;;;6.63;4.65;;;;;;;;;;5091034;28;20054;-77
2023/07/01 12:32:52;;;;;;;8.60;5.43;;;;;;;;;;5090536;28;20036;-78
2023/07/01 12:35:18;;;;;;;9.32;5.13;;;;;;;;;;5092217;28;20508;-79
2023/07/01 12:37:45;;;;;;;10.25;5.45;;;;;;;;;;5073700;28;20044;-77
2023/07/01 12:40:12;;;;;;;8.57;5.57;;;;;;;;;;5091095;28;20043;-77
2023/07/01 12:42:38;;;;;;;7.55;5.88;;;;;;;;;;5090892;28;20100;-77
2023/07/01 12:45:06;;;;;;;7.32;5.82;;;;;;;;;;5074328;28;20626;-75
2023/07/01 12:47:32;;;;;;;7.25;5.50;;;;;;;;;;5090884;28;20489;-75
2023/07/01 12:49:58;;;;;;;9.75;5.10;;;;;;;;;;5090755;28;20119;-76
2023/07/01 12:52:24;;;;;;;7.85;5.43;;;;;;;;;;5091033;28;20112;-75
2023/07/01 12:54:52;;;;;;;7.28;5.07;;;;;;;;;;5090302;28;20060;-75
2023/07/01 12:57:20;;;;;;;7.05;4.93;;;;;;;;;;5090823;28;20040;-76
2023/07/01 12:59:46;;;;;;;7.75;5.60;;;;;;;;;;5073814;28;20040;-76
2023/07/01 13:02:13;;;;;;;6.05;4.90;;;;;;;;;;5074091;28;20550;-75
2023/07/01 13:04:39;;;;;;;6.53;4.95;;;;;;;;;;5075853;28;20414;-75
2023/07/01 13:07:05;;;;;;;6.35;4.75;;;;;;;;;;5095887;28;20036;-74
2023/07/01 13:09:47;;;;;;;8.05;4.60;;;;;;;;;;5094443;28;20036;-76
2023/07/01 13:12:13;;;;;;;7.22;4.35;;;;;;;;;;5094796;28;20109;-77
2023/07/01 13:14:39;;;;;;;6.22;4.47;;;;;;;;;;5088218;28;20048;-76
2023/07/01 13:17:06;;;;;;;5.50;4.20;;;;;;;;;;5088734;28;20043;-75
2023/07/01 13:19:32;;;;;;;6.07;4.63;;;;;;;;;;5077644;28;20036;-76
2023/07/01 13:21:59;;;;;;;6.90;4.78;;;;;;;;;;5095728;28;20039;-76
2023/07/01 13:24:25;;;;;;;5.85;4.15;;;;;;;;;;5077395;28;20044;-76
2023/07/01 13:26:53;;;;;;;6.30;4.43;;;;;;;;;;5095260;28;20059;-76
2023/07/01 13:29:20;;;;;;;7.50;4.00;;;;;;;;;;5095522;28;20097;-75
2023/07/01 13:31:48;;;;;;;5.60;4.10;;;;;;;;;;5094258;28;20032;-76
2023/07/01 13:34:16;;;;;;;6.47;4.00;;;;;;;;;;5094385;28;20063;-75
2023/07/01 13:36:43;;;;;;;6.65;4.20;;;;;;;;;;5093866;28;20132;-75
2023/07/01 13:39:19;;;;;;;6.78;4.28;;;;;;;;;;5094574;28;20040;-75
2023/07/01 13:41:45;;;;;;;8.65;4.70;;;;;;;;;;5080927;28;20115;-76
2023/07/01 13:44:14;;;;;;;6.53;4.88;;;;;;;;;;5077464;28;20507;-76
2023/07/01 13:46:40;;;;;;;7.65;5.05;;;;;;;;;;5093465;28;20043;-77
2023/07/01 13:49:08;;;;;;;7.07;5.22;;;;;;;;;;5077398;28;20104;-75
2023/07/01 13:51:37;;;;;;;6.82;5.30;;;;;;;;;;5094010;28;20119;-75
2023/07/01 13:54:05;;;;;;;8.93;5.38;;;;;;;;;;5093662;28;20552;-76
2023/07/01 13:56:31;;;;;;;7.25;4.90;;;;;;;;;;5077111;28;20062;-76
2023/07/01 13:58:58;;;;;;;7.22;5.28;;;;;;;;;;5093455;28;20113;-75
2023/07/01 14:01:24;;;;;;;7.07;5.60;;;;;;;;;;5093875;28;20040;-76
2023/07/01 14:03:53;;;;;;;9.55;5.57;;;;;;;;;;5094624;28;20488;-75
2023/07/01 14:06:19;;;;;;;7.88;5.82;;;;;;;;;;5093773;28;20111;-75
2023/07/01 14:08:45;;;;;;;8.80;6.25;;;;;;;;;;5093256;28;20047;-75
2023/07/01 14:11:16;;;;;;;11.00;6.10;;;;;;;;;;5093983;28;20044;-75
2023/07/01 14:13:43;;;;;;;8.40;5.60;;;;;;;;;;5093320;28;20051;-76
2023/07/01 14:16:09;;;;;;;8.85;5.55;;;;;;;;;;5093027;28;20063;-74
2023/07/01 14:18:39;;;;;;;9.50;5.07;;;;;;;;;;5093477;28;20044;-76
2023/07/01 14:21:05;;;;;;;6.30;5.13;;;;;;;;;;5093381;28;20115;-75
2023/07/01 14:23:38;;;;;;;7.97;5.45;;;;;;;;;;5093431;28;20036;-74
2023/07/01 14:26:09;;;;;;;8.98;5.32;;;;;;;;;;5093288;28;20470;-75
2023/07/01 14:28:36;;;;;;;7.80;6.00;;;;;;;;;;5094626;28;20066;-74
2023/07/01 14:31:03;;;;;;;9.60;5.20;;;;;;;;;;5092932;28;20057;-75
2023/07/01 14:33:36;;;;;;;11.25;5.68;;;;;;;;;;5093474;28;20028;-75
2023/07/01 14:36:07;;;;;;;8.75;5.70;;;;;;;;;;5075944;28;20089;-76
2023/07/01 14:38:41;;;;;;;10.57;5.90;;;;;;;;;;5093130;28;20039;-74
2023/07/01 14:41:13;;;;;;;8.77;5.40;;;;;;;;;;5092881;28;20063;-75